Time;durP1;ratioP1;P1;durP2;ratioP2;P2;SDS_P1;SDS_P2;PMS_P1;PMS_P2;Temp;Humidity;BMP_temperature;BMP_pressure;BME280_temperature;BME280_humidity;BME280_pressure;Samples;Min_cycle;Max_cycle;Signal;HPM_P1;HPM_P2
2024/02/17 00:01:53;;;;;;;28.17;20.35;;;;;;;5.88;62.12;95315.47;4219297;28;20529;-68
2024/02/17 00:03:55;;;;;;;25.35;19.73;;;;;;;5.91;61.98;95326.44;4245526;27;20082;-70
2024/02/17 00:05:57;;;;;;;31.30;22.40;;;;;;;5.87;62.50;95321.59;4245103;27;20059;-67
2024/02/17 00:07:59;;;;;;;30.23;20.25;;;;;;;5.87;62.22;95322.44;4245283;27;20433;-68
2024/02/17 00:10:01;;;;;;;32.17;22.13;;;;;;;5.91;62.06;95323.00;4245012;27;20043;-69
2024/02/17 00:12:03;;;;;;;33.65;22.23;;;;;;;5.92;62.02;95315.09;4244685;27;20100;-67
2024/02/17 00:14:05;;;;;;;30.60;21.42;;;;;;;5.95;62.26;95319.28;4245788;27;20047;-68
2024/02/17 00:16:07;;;;;;;32.50;21.10;;;;;;;5.94;61.86;95322.81;4244776;27;20043;-69
2024/02/17 00:18:10;;;;;;;31.45;21.15;;;;;;;5.92;62.19;95320.31;4227091;28;20245;-67
2024/02/17 00:20:14;;;;;;;32.05;21.20;;;;;;;5.89;61.60;95320.56;4245359;27;20047;-68
2024/02/17 00:22:16;;;;;;;28.83;20.35;;;;;;;5.84;61.92;95314.84;4242856;27;20047;-69
2024/02/17 00:24:18;;;;;;;27.80;19.58;;;;;;;5.83;61.92;95310.63;4241967;27;20122;-70
2024/02/17 00:26:20;;;;;;;29.52;20.67;;;;;;;5.82;62.13;95313.31;4234457;27;20460;-68
2024/02/17 00:28:26;;;;;;;28.15;20.30;;;;;;;5.80;61.90;95318.63;4218257;28;20053;-67
2024/02/17 00:30:28;;;;;;;26.63;19.38;;;;;;;5.79;61.87;95316.16;4244203;27;20498;-69
2024/02/17 00:32:30;;;;;;;26.35;19.25;;;;;;;5.76;62.32;95319.78;4237736;27;20056;-68
2024/02/17 00:34:32;;;;;;;28.48;20.30;;;;;;;5.41;62.89;95319.81;4244920;27;20043;-68
2024/02/17 00:36:34;;;;;;;32.42;21.33;;;;;;;4.78;65.17;95321.75;4245122;27;20082;-68
2024/02/17 00:38:35;;;;;;;27.00;20.23;;;;;;;4.65;65.99;95326.97;4238853;27;20047;-68
2024/02/17 00:40:39;;;;;;;26.23;19.25;;;;;;;4.54;65.92;95325.13;4245108;27;20102;-72
2024/02/17 00:42:41;;;;;;;26.00;19.50;;;;;;;4.55;66.05;95326.75;4246120;27;20125;-66
2024/02/17 00:44:43;;;;;;;27.98;19.55;;;;;;;4.59;66.12;95322.19;4239140;27;20687;-68
2024/02/17 00:46:45;;;;;;;30.00;21.35;;;;;;;4.72;65.79;95318.63;4231573;27;20063;-68
2024/02/17 00:48:47;;;;;;;28.30;19.42;;;;;;;4.77;65.23;95320.06;4233272;27;20112;-68
2024/02/17 00:50:49;;;;;;;27.10;20.65;;;;;;;4.77;65.26;95318.28;4245250;27;20119;-67
2024/02/17 00:53:02;;;;;;;29.17;21.17;;;;;;;4.43;65.27;95318.09;4245712;27;20463;-68
2024/02/17 00:55:05;;;;;;;31.88;22.67;;;;;;;4.19;66.77;95328.34;4233889;27;21420;-72
2024/02/17 00:57:07;;;;;;;34.03;23.90;;;;;;;3.89;67.54;95319.16;4244056;27;20380;-70
2024/02/17 00:59:09;;;;;;;32.58;23.00;;;;;;;3.79;68.29;95327.66;4224587;28;20131;-68
2024/02/17 01:01:11;;;;;;;34.08;22.75;;;;;;;3.81;68.12;95324.00;4242141;27;20071;-68
2024/02/17 01:03:26;;;;;;;35.70;22.58;;;;;;;3.99;68.56;95331.50;4215983;27;20162;-70
2024/02/17 01:05:28;;;;;;;31.35;22.75;;;;;;;3.86;68.06;95331.47;4244257;27;20046;-69
2024/02/17 01:07:30;;;;;;;32.33;22.67;;;;;;;3.94;68.69;95326.63;4244472;27;20436;-67
2024/02/17 01:09:32;;;;;;;30.98;22.58;;;;;;;4.11;67.59;95325.47;4244067;27;20046;-69
2024/02/17 01:11:35;;;;;;;27.95;21.08;;;;;;;4.09;67.36;95320.38;4238356;27;20061;-68
2024/02/17 01:13:39;;;;;;;29.52;20.85;;;;;;;4.27;67.38;95314.88;4241740;27;20046;-67
2024/02/17 01:15:41;;;;;;;28.98;22.08;;;;;;;4.37;66.62;95317.69;4222881;28;20059;-68
2024/02/17 01:17:43;;;;;;;30.10;22.30;;;;;;;4.50;66.35;95319.31;4244348;27;20043;-66
2024/02/17 01:19:45;;;;;;;28.52;22.10;;;;;;;4.59;66.31;95317.84;4243573;27;20051;-69
2024/02/17 01:21:47;;;;;;;33.08;21.75;;;;;;;4.71;65.79;95326.50;4240717;27;20461;-68
2024/02/17 01:23:49;;;;;;;29.83;20.92;;;;;;;4.83;65.26;95320.47;4243734;27;20047;-69
2024/02/17 01:25:51;;;;;;;27.85;21.58;;;;;;;4.88;65.15;95315.78;4232264;27;20051;-67
2024/02/17 01:27:53;;;;;;;31.70;22.30;;;;;;;4.89;64.67;95314.84;4239439;27;20066;-69
2024/02/17 01:29:55;;;;;;;30.42;21.63;;;;;;;4.84;64.71;95322.13;4242044;27;20133;-69
2024/02/17 01:31:57;;;;;;;32.28;21.30;;;;;;;4.85;64.70;95309.97;4238542;27;20050;-69
2024/02/17 01:33:59;;;;;;;29.38;20.60;;;;;;;4.91;65.02;95317.34;4237105;27;20063;-69
2024/02/17 01:36:01;;;;;;;26.75;20.38;;;;;;;4.92;64.90;95325.00;4242678;27;20046;-68
2024/02/17 01:38:03;;;;;;;33.63;20.23;;;;;;;5.00;64.25;95313.25;4244382;27;20053;-68
2024/02/17 01:40:06;;;;;;;28.75;20.63;;;;;;;5.07;64.26;95317.88;4240558;27;20422;-68
2024/02/17 01:42:08;;;;;;;29.10;19.90;;;;;;;5.10;64.30;95312.47;4212583;28;20122;-68
2024/02/17 01:44:10;;;;;;;29.38;20.40;;;;;;;5.09;63.73;95316.00;4234761;27;20400;-67
2024/02/17 01:46:14;;;;;;;27.35;19.15;;;;;;;5.13;64.14;95316.63;4213469;28;20059;-68
2024/02/17 01:48:15;;;;;;;29.30;19.90;;;;;;;5.11;63.44;95316.72;4237318;27;20142;-67
2024/02/17 01:50:18;;;;;;;28.45;21.00;;;;;;;5.13;63.99;95311.41;4230068;27;20398;-68
2024/02/17 01:52:39;;;;;;;29.75;20.10;;;;;;;5.18;63.93;95316.28;4212163;28;20127;-66
2024/02/17 01:54:41;;;;;;;28.80;19.27;;;;;;;5.23;63.17;95312.41;4237649;27;20264;-68
2024/02/17 01:56:45;;;;;;;27.75;19.42;;;;;;;5.21;63.45;95313.47;4243302;27;20084;-66
2024/02/17 01:58:52;;;;;;;26.40;19.85;;;;;;;5.20;63.00;95312.63;4219769;28;20439;-67
2024/02/17 02:00:55;;;;;;;27.73;20.23;;;;;;;5.20;63.01;95310.03;4213483;28;20058;-68
2024/02/17 02:02:57;;;;;;;25.42;19.50;;;;;;;5.19;63.73;95313.56;4231976;27;20051;-69
2024/02/17 02:04:59;;;;;;;30.27;19.90;;;;;;;5.20;63.63;95314.41;4219527;28;20052;-69
2024/02/17 02:07:02;;;;;;;31.55;21.05;;;;;;;5.14;63.29;95315.66;4238243;27;20463;-70
2024/02/17 02:09:04;;;;;;;28.05;20.40;;;;;;;5.02;63.56;95314.78;4219013;28;20040;-69
2024/02/17 02:11:05;;;;;;;25.80;19.50;;;;;;;4.84;63.59;95310.91;4233414;27;20468;-68
2024/02/17 02:13:08;;;;;;;30.50;20.08;;;;;;;4.78;64.36;95324.34;4218549;28;20055;-69
2024/02/17 02:15:12;;;;;;;25.23;19.45;;;;;;;4.57;65.53;95318.88;4244598;27;20061;-67
2024/02/17 02:17:15;;;;;;;23.95;19.05;;;;;;;4.44;65.46;95313.72;4240525;27;20057;-70
2024/02/17 02:19:17;;;;;;;26.88;19.42;;;;;;;4.41;65.25;95319.09;4232245;27;20451;-67
2024/02/17 02:21:19;;;;;;;25.42;19.23;;;;;;;4.41;65.57;95324.28;4243239;27;20085;-67
2024/02/17 02:23:21;;;;;;;25.70;18.17;;;;;;;4.34;65.82;95331.66;4238414;27;20136;-69
2024/02/17 02:25:24;;;;;;;26.10;18.20;;;;;;;4.23;66.06;95332.41;4243135;27;20065;-68
2024/02/17 02:27:27;;;;;;;23.85;17.85;;;;;;;3.92;67.19;95328.47;4242718;27;20088;-69
2024/02/17 02:29:28;;;;;;;26.38;18.60;;;;;;;3.75;67.94;95328.78;4236681;27;20043;-69
2024/02/17 02:31:30;;;;;;;27.30;18.40;;;;;;;3.83;67.78;95339.44;4200714;28;20048;-71
2024/02/17 02:33:32;;;;;;;26.15;19.02;;;;;;;3.88;67.41;95330.44;4241058;27;20062;-69
2024/02/17 02:35:34;;;;;;;26.02;18.42;;;;;;;4.07;68.01;95331.81;4240336;27;20123;-69
2024/02/17 02:37:36;;;;;;;26.42;18.98;;;;;;;4.22;66.76;95337.72;4241143;27;20119;-69
2024/02/17 02:39:38;;;;;;;27.92;18.40;;;;;;;4.33;65.99;95343.00;4237907;27;20047;-67
2024/02/17 02:41:40;;;;;;;26.40;19.40;;;;;;;4.43;65.68;95325.88;4221796;28;20129;-68
2024/02/17 02:43:43;;;;;;;33.13;20.80;;;;;;;4.53;65.17;95328.63;4238544;27;20039;-69
2024/02/17 02:45:45;;;;;;;25.67;19.25;;;;;;;4.58;65.91;95326.56;4230404;27;20118;-67
2024/02/17 02:47:47;;;;;;;24.38;19.67;;;;;;;4.62;65.46;95329.75;4223141;28;20048;-69
2024/02/17 02:49:49;;;;;;;25.33;19.42;;;;;;;4.69;64.48;95331.00;4236313;27;20055;-68
2024/02/17 02:51:52;;;;;;;31.30;20.15;;;;;;;4.68;65.06;95330.16;4242268;27;20059;-68
2024/02/17 02:53:54;;;;;;;30.20;20.00;;;;;;;4.69;64.88;95331.81;4237220;27;20079;-68
2024/02/17 02:55:56;;;;;;;29.42;18.95;;;;;;;4.72;64.42;95328.19;4238195;27;20487;-68
2024/02/17 02:57:58;;;;;;;25.88;19.15;;;;;;;4.73;64.75;95332.41;4238072;27;20047;-69
2024/02/17 03:00:00;;;;;;;25.02;19.73;;;;;;;4.63;64.57;95332.25;4242733;27;20122;-67
2024/02/17 03:02:04;;;;;;;25.67;19.42;;;;;;;4.59;64.60;95338.59;4238651;27;20054;-69
2024/02/17 03:04:06;;;;;;;26.05;19.92;;;;;;;4.50;65.13;95340.06;4242616;27;20074;-68
2024/02/17 03:06:08;;;;;;;28.77;19.02;;;;;;;4.44;65.08;95331.88;4236374;27;20050;-69
2024/02/17 03:08:10;;;;;;;25.45;20.10;;;;;;;4.34;65.75;95344.63;4231987;27;20044;-68
2024/02/17 03:10:12;;;;;;;26.45;19.13;;;;;;;4.20;66.45;95344.78;4230167;27;20524;-67
2024/02/17 03:12:14;;;;;;;25.42;18.92;;;;;;;4.23;66.35;95344.53;4220762;28;20066;-67
2024/02/17 03:14:16;;;;;;;27.95;20.95;;;;;;;4.32;66.56;95346.50;4236869;27;20039;-67
2024/02/17 03:16:25;;;;;;;27.38;20.67;;;;;;;4.42;65.54;95342.34;4240554;27;20388;-68
2024/02/17 03:18:26;;;;;;;30.70;20.30;;;;;;;4.48;65.65;95354.91;4234774;27;20051;-68
2024/02/17 03:20:28;;;;;;;27.48;20.60;;;;;;;4.54;65.72;95345.88;4239406;28;20353;-69
2024/02/17 03:22:31;;;;;;;25.17;19.23;;;;;;;4.62;65.47;95343.56;4242271;28;20054;-68
2024/02/17 03:24:33;;;;;;;25.27;18.67;;;;;;;4.67;64.89;95341.47;4241821;27;20098;-67
2024/02/17 03:26:38;;;;;;;23.85;17.02;;;;;;;4.71;64.70;95347.28;4242771;27;20055;-68
2024/02/17 03:28:40;;;;;;;22.10;16.20;;;;;;;4.72;64.19;95333.38;4244047;27;20088;-68
2024/02/17 03:30:41;;;;;;;20.83;15.13;;;;;;;4.73;64.59;95340.22;4246315;27;20047;-69
2024/02/17 03:32:43;;;;;;;19.25;15.50;;;;;;;4.72;64.08;95339.38;4245305;27;20228;-68
2024/02/17 03:34:45;;;;;;;19.48;14.57;;;;;;;4.77;64.69;95341.66;4210597;28;20513;-66
2024/02/17 03:36:47;;;;;;;18.73;14.52;;;;;;;4.79;64.08;95341.56;4243533;27;20092;-67
2024/02/17 03:38:50;;;;;;;18.38;13.98;;;;;;;4.77;63.94;95344.25;4244614;27;20051;-68
2024/02/17 03:40:52;;;;;;;19.05;13.43;;;;;;;4.75;63.86;95342.69;4245687;27;20047;-68
2024/02/17 03:42:54;;;;;;;18.48;14.27;;;;;;;4.75;64.38;95343.53;4235480;27;20243;-67
2024/02/17 03:44:55;;;;;;;17.65;14.00;;;;;;;4.71;64.42;95337.75;4239355;27;20044;-67
2024/02/17 03:46:57;;;;;;;19.20;14.35;;;;;;;4.73;64.92;95340.22;4240223;27;20131;-66
2024/02/17 03:49:00;;;;;;;17.88;13.98;;;;;;;4.71;64.09;95337.75;4244700;27;20434;-66
2024/02/17 03:51:02;;;;;;;17.70;14.05;;;;;;;4.75;64.56;95335.75;4245480;27;20098;-68
2024/02/17 03:53:04;;;;;;;20.70;14.90;;;;;;;4.73;64.71;95340.22;4245307;27;20053;-68
2024/02/17 03:55:07;;;;;;;20.67;14.95;;;;;;;4.71;64.51;95336.88;4241340;27;20036;-68
2024/02/17 03:57:08;;;;;;;18.85;14.75;;;;;;;4.70;64.39;95343.03;4244032;27;20047;-67
2024/02/17 03:59:10;;;;;;;20.73;15.57;;;;;;;4.68;64.16;95337.94;4246255;27;20047;-68
2024/02/17 04:01:12;;;;;;;17.65;14.65;;;;;;;4.70;64.27;95335.25;4245491;27;20443;-67
2024/02/17 04:03:14;;;;;;;21.42;15.50;;;;;;;4.73;64.47;95332.41;4245605;27;20172;-67
2024/02/17 04:05:16;;;;;;;17.85;14.23;;;;;;;4.72;63.94;95341.16;4226178;28;20051;-67
2024/02/17 04:07:19;;;;;;;17.90;14.82;;;;;;;4.64;64.20;95341.69;4246066;27;20058;-69
2024/02/17 04:09:21;;;;;;;25.08;15.93;;;;;;;4.62;64.26;95332.34;4244900;27;20849;-67
2024/02/17 04:11:24;;;;;;;18.80;14.32;;;;;;;4.61;64.05;95341.09;4242987;27;20369;-68
2024/02/17 04:13:27;;;;;;;20.27;14.80;;;;;;;4.63;64.76;95345.22;4245677;27;20176;-67
2024/02/17 04:15:29;;;;;;;27.67;15.87;;;;;;;4.64;64.60;95346.88;4240452;27;20078;-70
2024/02/17 04:17:31;;;;;;;25.35;15.38;;;;;;;4.69;64.94;95337.03;4244106;27;20134;-70
2024/02/17 04:19:33;;;;;;;19.30;14.73;;;;;;;4.69;64.24;95338.78;4227262;28;20131;-68
2024/02/17 04:21:36;;;;;;;20.05;14.40;;;;;;;4.69;64.32;95331.81;4244078;27;20074;-69
2024/02/17 04:23:40;;;;;;;19.52;15.20;;;;;;;4.67;64.44;95335.47;4239783;27;20047;-68
2024/02/17 04:25:43;;;;;;;30.10;15.48;;;;;;;4.64;64.80;95330.47;4239230;27;20136;-67
2024/02/17 04:27:45;;;;;;;20.55;14.57;;;;;;;4.65;64.19;95332.16;4245163;27;20055;-67
2024/02/17 04:29:47;;;;;;;20.88;15.38;;;;;;;4.59;64.58;95333.41;4244372;27;20078;-69
2024/02/17 04:31:49;;;;;;;22.05;15.35;;;;;;;4.54;64.91;95330.31;4242738;27;20043;-68
2024/02/17 04:33:51;;;;;;;19.50;15.48;;;;;;;4.54;64.27;95330.31;4213391;28;20162;-68
2024/02/17 04:35:53;;;;;;;20.25;14.90;;;;;;;4.56;64.59;95330.19;4223129;28;20044;-69
2024/02/17 04:37:55;;;;;;;20.48;16.77;;;;;;;4.56;65.04;95335.38;4241512;27;20071;-67
2024/02/17 04:39:57;;;;;;;21.17;17.17;;;;;;;4.55;64.55;95331.13;4244406;27;20497;-68
2024/02/17 04:41:59;;;;;;;24.38;17.75;;;;;;;4.55;64.45;95333.72;4238500;27;20054;-68
2024/02/17 04:44:01;;;;;;;24.52;17.45;;;;;;;4.53;64.87;95344.19;4226885;28;20055;-66
2024/02/17 04:46:03;;;;;;;20.40;15.93;;;;;;;4.49;64.59;95340.97;4241403;27;20050;-69
2024/02/17 04:48:06;;;;;;;24.38;17.50;;;;;;;4.48;65.07;95343.69;4243308;27;20078;-69
2024/02/17 04:50:11;;;;;;;19.33;15.82;;;;;;;4.44;65.30;95344.84;4221168;28;20044;-67
2024/02/17 04:52:13;;;;;;;19.75;14.77;;;;;;;4.45;65.22;95344.75;4243491;27;20135;-67
2024/02/17 04:54:15;;;;;;;19.10;15.45;;;;;;;4.43;64.85;95354.41;4244957;27;20100;-68
2024/02/17 04:56:18;;;;;;;21.67;15.02;;;;;;;4.45;64.88;95346.50;4225412;28;20512;-66
2024/02/17 04:58:20;;;;;;;21.42;15.02;;;;;;;4.46;65.21;95355.94;4240834;27;20118;-67
2024/02/17 05:00:23;;;;;;;19.73;15.45;;;;;;;4.49;64.97;95353.94;4238228;27;20483;-68
2024/02/17 05:02:25;;;;;;;18.35;15.10;;;;;;;4.43;64.10;95353.56;4244287;27;20081;-67
2024/02/17 05:04:27;;;;;;;20.25;15.40;;;;;;;4.38;64.78;95353.03;4244983;27;20099;-68
2024/02/17 05:06:29;;;;;;;21.85;15.73;;;;;;;4.36;64.66;95363.53;4240277;27;20050;-69
2024/02/17 05:08:31;;;;;;;21.02;15.85;;;;;;;4.40;64.83;95361.56;4236929;27;20452;-69
2024/02/17 05:10:33;;;;;;;18.55;14.15;;;;;;;4.40;64.69;95358.97;4243946;27;20651;-68
2024/02/17 05:12:35;;;;;;;18.42;14.30;;;;;;;4.38;64.37;95355.63;4237341;27;20096;-69
2024/02/17 05:14:37;;;;;;;23.77;15.55;;;;;;;4.36;64.73;95363.53;4240900;27;20085;-69
2024/02/17 05:16:39;;;;;;;21.48;15.48;;;;;;;4.35;64.67;95358.47;4243832;27;20059;-68
2024/02/17 05:18:41;;;;;;;18.58;15.15;;;;;;;4.31;64.57;95358.66;4224802;28;20085;-67
2024/02/17 05:20:43;;;;;;;23.98;16.23;;;;;;;4.26;65.20;95352.13;4215726;28;20077;-68
2024/02/17 05:22:45;;;;;;;23.83;15.30;;;;;;;4.20;65.32;95352.56;4222216;28;20126;-68
2024/02/17 05:24:47;;;;;;;23.48;16.00;;;;;;;4.17;65.22;95360.50;4241406;27;20074;-69
2024/02/17 05:26:49;;;;;;;21.98;16.85;;;;;;;4.14;65.79;95358.16;4229383;27;20501;-69
2024/02/17 05:28:51;;;;;;;25.70;17.77;;;;;;;4.10;65.11;95363.53;4232598;27;20150;-69
2024/02/17 05:30:54;;;;;;;29.35;19.20;;;;;;;3.99;65.98;95365.19;4239319;27;20051;-69
2024/02/17 05:32:56;;;;;;;31.70;20.60;;;;;;;3.93;66.05;95368.19;4234089;27;20059;-72
2024/02/17 05:34:58;;;;;;;27.17;19.17;;;;;;;3.90;66.28;95372.63;4243991;27;20055;-68
2024/02/17 05:37:02;;;;;;;26.50;19.23;;;;;;;3.94;66.76;95373.28;4230889;27;20048;-68
2024/02/17 05:39:03;;;;;;;22.80;18.15;;;;;;;4.00;66.33;95384.97;4241490;27;20419;-68
2024/02/17 05:41:05;;;;;;;24.55;19.60;;;;;;;4.03;66.32;95377.84;4212814;28;20127;-68
2024/02/17 05:43:07;;;;;;;29.23;18.15;;;;;;;4.13;66.49;95382.41;4222217;27;20074;-67
2024/02/17 05:45:09;;;;;;;29.50;18.85;;;;;;;4.19;65.58;95385.41;4244890;27;20490;-68
2024/02/17 05:47:11;;;;;;;26.88;18.92;;;;;;;4.21;65.82;95393.91;4242811;27;20065;-68
2024/02/17 05:49:14;;;;;;;22.70;17.92;;;;;;;4.25;64.87;95387.59;4224586;28;20039;-69
2024/02/17 05:51:16;;;;;;;26.80;17.77;;;;;;;4.45;65.09;95388.84;4243915;27;20130;-68
2024/02/17 05:53:18;;;;;;;24.35;18.42;;;;;;;4.62;64.77;95390.25;4239026;27;20092;-70
2024/02/17 05:55:20;;;;;;;28.27;19.60;;;;;;;4.65;64.93;95399.63;4243101;27;20049;-68
2024/02/17 05:57:24;;;;;;;28.17;20.05;;;;;;;4.70;63.93;95402.72;4240410;27;20138;-70
2024/02/17 05:59:26;;;;;;;33.65;20.67;;;;;;;4.60;63.67;95399.91;4223233;28;20044;-69
2024/02/17 06:01:28;;;;;;;25.88;19.27;;;;;;;4.55;64.57;95404.59;4218699;28;20087;-69
2024/02/17 06:03:32;;;;;;;30.63;21.02;;;;;;;4.60;64.51;95405.09;4231557;27;20051;-69
2024/02/17 06:05:34;;;;;;;27.90;20.98;;;;;;;4.66;63.80;95406.47;4240583;27;20116;-68
2024/02/17 06:07:36;;;;;;;26.83;20.52;;;;;;;4.67;64.15;95405.53;4242039;27;20442;-68
2024/02/17 06:09:38;;;;;;;38.13;21.73;;;;;;;4.76;64.00;95407.50;4239044;27;20050;-68
2024/02/17 06:11:40;;;;;;;31.55;22.95;;;;;;;4.67;64.25;95403.78;4243096;27;20146;-67
2024/02/17 06:13:43;;;;;;;33.03;22.38;;;;;;;4.75;63.71;95410.19;4222214;28;20047;-68
2024/02/17 06:15:45;;;;;;;31.60;22.95;;;;;;;4.78;64.00;95416.00;4217813;28;20047;-66
2024/02/17 06:21:10;;;;;;;34.35;24.77;;;;;;;4.79;63.42;95417.66;4242536;27;20043;-69
2024/02/17 06:22:31;;;;;;;39.50;26.67;;;;;;;4.67;63.72;95424.53;4237393;27;20051;-67
2024/02/17 06:24:32;;;;;;;43.78;27.92;;;;;;;4.73;64.55;95418.06;4242313;27;20561;-69
2024/02/17 06:26:35;;;;;;;40.35;27.63;;;;;;;4.78;64.02;95420.38;4239787;27;20512;-68
2024/02/17 06:28:37;;;;;;;37.85;27.35;;;;;;;4.76;64.27;95428.25;4241985;27;20039;-68
2024/02/17 06:30:39;;;;;;;44.03;27.40;;;;;;;4.68;63.39;95417.56;4239860;27;20130;-68
2024/02/17 06:32:42;;;;;;;50.75;27.40;;;;;;;4.64;64.05;95424.72;4241958;27;20142;-71
2024/02/17 06:34:46;;;;;;;41.38;28.58;;;;;;;4.70;63.72;95424.31;4244170;27;20387;-67
2024/02/17 06:36:48;;;;;;;40.05;26.42;;;;;;;4.55;63.49;95433.16;4240886;27;20620;-69
2024/02/17 06:38:51;;;;;;;45.13;29.67;;;;;;;4.22;65.50;95439.69;4214178;28;20046;-67
2024/02/17 06:40:53;;;;;;;43.20;30.17;;;;;;;4.07;65.74;95432.94;4206939;27;20109;-68
2024/02/17 06:42:55;;;;;;;45.78;28.73;;;;;;;4.13;65.68;95437.72;4238736;27;20420;-69
2024/02/17 06:44:57;;;;;;;42.70;27.75;;;;;;;4.29;65.79;95434.91;4242519;27;20039;-67
2024/02/17 06:46:59;;;;;;;40.20;27.73;;;;;;;4.53;65.63;95434.19;4240397;27;20047;-68
2024/02/17 06:49:01;;;;;;;40.53;28.40;;;;;;;4.74;64.68;95437.09;4231859;27;20556;-66
2024/02/17 06:51:03;;;;;;;36.90;27.65;;;;;;;4.96;64.81;95439.84;4241341;27;20047;-68
2024/02/17 06:53:05;;;;;;;36.58;26.73;;;;;;;5.11;63.88;95440.56;4242068;27;20126;-68
2024/02/17 06:55:08;;;;;;;40.35;27.75;;;;;;;5.25;63.10;95440.44;4213924;28;20070;-69
2024/02/17 06:57:10;;;;;;;40.15;27.50;;;;;;;5.31;62.66;95442.59;4240224;27;20142;-69
2024/02/17 06:59:12;;;;;;;37.38;27.52;;;;;;;5.49;62.29;95445.66;4224394;28;20493;-67
2024/02/17 07:01:14;;;;;;;41.22;27.45;;;;;;;5.52;62.16;95439.38;4239498;27;20113;-69
2024/02/17 07:03:16;;;;;;;42.03;28.83;;;;;;;5.71;62.14;95442.31;4207354;28;20400;-69
2024/02/17 07:05:18;;;;;;;41.65;27.35;;;;;;;5.80;61.64;95440.00;4243264;27;20123;-71
2024/02/17 07:07:20;;;;;;;34.72;27.15;;;;;;;5.92;61.62;95439.94;4235381;27;20503;-69
2024/02/17 07:09:24;;;;;;;35.85;25.80;;;;;;;5.97;61.12;95438.81;4241671;27;20115;-70
2024/02/17 07:11:26;;;;;;;36.75;26.98;;;;;;;6.05;60.82;95434.69;4216753;28;20103;-67
2024/02/17 07:13:28;;;;;;;45.38;28.10;;;;;;;6.18;60.76;95441.59;4242131;27;20047;-68
2024/02/17 07:15:30;;;;;;;37.92;26.33;;;;;;;6.24;60.31;95441.97;4242254;27;20069;-66
2024/02/17 07:17:32;;;;;;;42.20;27.67;;;;;;;6.33;59.73;95443.06;4221305;28;20185;-70
2024/02/17 07:19:34;;;;;;;42.22;27.38;;;;;;;6.46;59.50;95442.97;4236426;27;20043;-70
2024/02/17 07:21:36;;;;;;;42.30;27.63;;;;;;;6.47;59.33;95448.03;4241979;28;20059;-71
2024/02/17 07:23:38;;;;;;;42.92;27.58;;;;;;;6.55;59.69;95450.06;4242881;28;20059;-68
2024/02/17 07:25:41;;;;;;;34.67;24.38;;;;;;;6.57;59.45;95443.78;4229532;28;20047;-70
2024/02/17 07:27:46;;;;;;;36.95;25.15;;;;;;;6.61;59.00;95446.19;4238441;28;20138;-70
2024/02/17 07:29:48;;;;;;;38.92;24.55;;;;;;;6.61;59.17;95440.97;4228889;28;20911;-68
2024/02/17 07:31:50;;;;;;;35.15;25.67;;;;;;;6.69;59.00;95443.81;4219879;28;20043;-69
2024/02/17 07:33:53;;;;;;;35.05;24.60;;;;;;;6.84;58.64;95444.41;4235152;28;20069;-69
2024/02/17 07:35:55;;;;;;;38.90;23.77;;;;;;;6.90;58.25;95447.38;4230713;28;20388;-69
2024/02/17 07:37:57;;;;;;;39.72;22.85;;;;;;;6.98;58.29;95446.78;4232947;28;20119;-70
2024/02/17 07:39:59;;;;;;;33.13;22.77;;;;;;;6.91;58.24;95453.44;4241025;28;20043;-68
2024/02/17 07:42:01;;;;;;;36.00;23.33;;;;;;;6.89;58.38;95448.31;4242216;28;20039;-68
2024/02/17 07:44:08;;;;;;;29.33;22.98;;;;;;;6.95;58.22;95445.25;4238601;28;20506;-68
2024/02/17 07:46:10;;;;;;;31.67;21.67;;;;;;;7.10;57.89;95442.41;4224401;28;20067;-68
2024/02/17 07:48:12;;;;;;;33.33;23.88;;;;;;;7.20;57.55;95438.13;4241095;28;20051;-68
2024/02/17 07:50:14;;;;;;;38.38;23.30;;;;;;;7.28;57.70;95435.75;4242765;28;20043;-69
2024/02/17 07:52:16;;;;;;;34.63;23.40;;;;;;;7.43;57.12;95440.72;4241679;28;20070;-69
2024/02/17 07:54:18;;;;;;;35.67;22.75;;;;;;;7.49;57.26;95438.44;4240757;28;20061;-68
2024/02/17 07:56:20;;;;;;;37.75;23.63;;;;;;;7.47;57.49;95437.72;4240338;28;20447;-68
2024/02/17 07:58:23;;;;;;;31.80;22.60;;;;;;;7.53;57.31;95441.66;4218125;28;20063;-67
2024/02/17 08:00:25;;;;;;;31.50;21.50;;;;;;;7.59;56.38;95433.31;4242645;28;20415;-67
2024/02/17 08:02:27;;;;;;;31.00;21.42;;;;;;;7.66;56.53;95437.09;4242629;28;20051;-72
2024/02/17 08:04:29;;;;;;;35.03;21.98;;;;;;;7.79;56.36;95429.13;4231955;28;20491;-69
2024/02/17 08:06:31;;;;;;;39.85;20.95;;;;;;;7.79;56.55;95435.16;4242430;28;20043;-69
2024/02/17 08:08:33;;;;;;;32.40;22.60;;;;;;;7.65;55.90;95432.00;4242167;28;20078;-73
2024/02/17 08:10:35;;;;;;;34.50;22.10;;;;;;;7.39;56.48;95446.16;4242027;28;20520;-72
2024/02/17 08:12:37;;;;;;;29.23;20.80;;;;;;;7.03;58.03;95449.03;4245405;27;20047;-71
2024/02/17 08:14:40;;;;;;;31.58;21.77;;;;;;;7.07;57.85;95445.25;4246879;27;20411;-69
2024/02/17 08:16:43;;;;;;;28.63;20.30;;;;;;;7.20;57.94;95443.34;4225396;28;20088;-69
2024/02/17 08:18:45;;;;;;;32.13;22.15;;;;;;;7.47;57.45;95439.53;4231012;27;20139;-70
2024/02/17 08:20:49;;;;;;;30.50;20.40;;;;;;;7.69;57.21;95444.66;4222755;28;20094;-69
2024/02/17 08:22:51;;;;;;;30.23;21.02;;;;;;;7.92;56.83;95436.78;4243577;27;20054;-70
2024/02/17 08:24:53;;;;;;;30.70;19.65;;;;;;;8.00;55.14;95432.59;4244733;27;20112;-72
2024/02/17 08:26:56;;;;;;;28.80;18.60;;;;;;;7.88;55.66;95448.41;4245109;27;20419;-71
2024/02/17 08:28:57;;;;;;;27.58;19.38;;;;;;;7.89;56.39;95445.66;4221946;28;20044;-70
2024/02/17 08:30:59;;;;;;;29.38;19.60;;;;;;;7.96;55.84;95446.03;4245436;27;20211;-72
2024/02/17 08:33:02;;;;;;;27.10;19.55;;;;;;;7.60;56.07;95450.63;4224568;28;20093;-72
2024/02/17 08:35:04;;;;;;;26.15;18.33;;;;;;;7.39;56.59;95451.38;4217815;28;20444;-71
2024/02/17 08:37:07;;;;;;;28.88;18.88;;;;;;;7.61;57.53;95452.28;4246270;27;20125;-71
2024/02/17 08:39:09;;;;;;;28.98;19.95;;;;;;;7.78;56.88;95450.91;4245585;27;20039;-70
2024/02/17 08:41:11;;;;;;;29.95;18.88;;;;;;;7.94;56.24;95453.97;4238701;27;20070;-70
2024/02/17 08:43:13;;;;;;;35.65;19.77;;;;;;;8.17;56.02;95449.47;4222240;28;20056;-71
2024/02/17 08:45:15;;;;;;;31.45;22.00;;;;;;;8.20;55.53;95453.63;4227463;28;20039;-71
2024/02/17 08:47:17;;;;;;;36.88;21.50;;;;;;;8.30;55.20;95446.69;4241363;27;20054;-70
2024/02/17 08:49:19;;;;;;;39.97;24.15;;;;;;;8.35;54.62;95446.31;4244699;27;20388;-70
2024/02/17 08:51:21;;;;;;;31.92;20.10;;;;;;;8.45;54.20;95449.00;4244551;27;20039;-69
2024/02/17 08:53:23;;;;;;;30.42;20.55;;;;;;;8.34;54.32;95453.28;4233541;27;20059;-70
2024/02/17 08:55:25;;;;;;;31.88;20.17;;;;;;;8.18;55.07;95451.13;4237268;27;20059;-72
2024/02/17 08:57:27;;;;;;;25.70;20.55;;;;;;;7.96;55.60;95457.28;4245041;27;20126;-71
2024/02/17 08:59:29;;;;;;;25.85;19.33;;;;;;;7.80;56.21;95462.06;4213166;28;20043;-70
2024/02/17 09:01:31;;;;;;;28.90;19.50;;;;;;;7.98;56.09;95459.78;4237125;27;20486;-71
2024/02/17 09:03:33;;;;;;;27.70;20.05;;;;;;;8.13;55.67;95453.28;4246078;27;20059;-71
2024/02/17 09:05:35;;;;;;;27.00;20.23;;;;;;;8.50;55.02;95450.28;4234703;27;20082;-69
2024/02/17 09:07:37;;;;;;;29.27;20.63;;;;;;;8.65;53.78;95458.63;4244358;27;20089;-71
2024/02/17 09:09:40;;;;;;;30.05;19.63;;;;;;;8.58;54.30;95457.47;4238941;27;20055;-70
2024/02/17 09:11:42;;;;;;;27.23;19.00;;;;;;;8.42;54.30;95450.09;4237929;27;20126;-70
2024/02/17 09:13:48;;;;;;;29.02;19.35;;;;;;;8.61;54.44;95455.44;4245158;27;20083;-70
2024/02/17 09:15:50;;;;;;;30.80;21.00;;;;;;;8.54;54.81;95454.31;4241194;27;20122;-67
2024/02/17 09:17:53;;;;;;;28.38;19.52;;;;;;;8.90;54.15;95459.16;4245524;27;20043;-70
2024/02/17 09:19:55;;;;;;;27.10;18.80;;;;;;;9.17;52.81;95451.56;4240818;27;20055;-71
2024/02/17 09:21:57;;;;;;;29.15;20.83;;;;;;;9.16;53.39;95452.56;4244644;27;20074;-69
2024/02/17 09:23:59;;;;;;;26.88;19.92;;;;;;;9.24;52.62;95449.25;4243929;27;20043;-71
2024/02/17 09:26:01;;;;;;;27.65;20.00;;;;;;;9.26;52.55;95452.56;4242798;27;20047;-67
2024/02/17 09:28:03;;;;;;;28.60;19.83;;;;;;;9.52;53.01;95449.47;4222118;28;20044;-69
2024/02/17 09:30:06;;;;;;;26.98;16.83;;;;;;;9.77;51.68;95451.59;4241554;27;20050;-70
2024/02/17 09:32:09;;;;;;;25.08;17.70;;;;;;;9.71;51.29;95454.75;4239237;27;20039;-69